TimeCDT,TemperatureF,Dew PointF,Humidity,Sea Level PressureIn,VisibilityMPH,Wind Direction,Wind SpeedMPH,Gust SpeedMPH,PrecipitationIn,Events,Conditions,WindDirDegrees,DateUTC
12:15 AM,35.6,30.2,81,29.99,10.0,WSW,4.6,-,N/A,,Overcast,240,2013-03-12 05:15:00
12:35 AM,35.6,30.2,81,29.99,10.0,WSW,4.6,-,N/A,,Overcast,240,2013-03-12 05:35:00
12:55 AM,35.6,30.2,81,29.99,10.0,WSW,3.5,-,N/A,,Overcast,240,2013-03-12 05:55:00
1:15 AM,35.6,30.2,81,29.99,10.0,WSW,4.6,-,N/A,,Overcast,250,2013-03-12 06:15:00
1:35 AM,35.6,30.2,81,30.00,10.0,WSW,3.5,-,N/A,,Overcast,250,2013-03-12 06:35:00
1:55 AM,35.6,30.2,81,29.99,10.0,WSW,3.5,-,N/A,,Overcast,250,2013-03-12 06:55:00
2:15 AM,35.6,30.2,81,29.99,10.0,WSW,3.5,-,N/A,,Overcast,250,2013-03-12 07:15:00
2:35 AM,35.6,30.2,81,29.99,10.0,Calm,Calm,-,N/A,,Overcast,0,2013-03-12 07:35:00
2:55 AM,35.6,30.2,81,30.00,10.0,West,3.5,-,N/A,,Overcast,270,2013-03-12 07:55:00
3:15 AM,35.6,30.2,81,30.00,10.0,West,3.5,-,N/A,,Overcast,280,2013-03-12 08:15:00
3:35 AM,33.8,28.4,81,30.00,10.0,WNW,3.5,-,N/A,,Mostly Cloudy,290,2013-03-12 08:35:00
3:55 AM,33.8,28.4,81,29.99,10.0,Calm,Calm,-,N/A,,Mostly Cloudy,0,2013-03-12 08:55:00
4:15 AM,33.8,28.4,81,30.00,10.0,Calm,Calm,-,N/A,,Overcast,0,2013-03-12 09:15:00
4:35 AM,33.8,28.4,81,29.99,10.0,Calm,Calm,-,N/A,,Mostly Cloudy,0,2013-03-12 09:35:00
4:55 AM,32.0,28.4,87,30.00,10.0,Calm,Calm,-,N/A,,Scattered Clouds,0,2013-03-12 09:55:00
5:15 AM,30.2,28.4,93,30.01,10.0,Calm,Calm,-,N/A,,Clear,0,2013-03-12 10:15:00
5:35 AM,30.2,28.4,93,30.01,10.0,Calm,Calm,-,N/A,,Clear,0,2013-03-12 10:35:00
5:55 AM,30.2,28.4,93,30.02,10.0,Calm,Calm,-,N/A,,Clear,0,2013-03-12 10:55:00
6:15 AM,30.2,26.6,86,30.04,10.0,Calm,Calm,-,N/A,,Clear,0,2013-03-12 11:15:00
6:35 AM,30.2,26.6,86,30.03,10.0,West,3.5,-,N/A,,Clear,270,2013-03-12 11:35:00
6:55 AM,28.4,26.6,93,30.05,10.0,Calm,Calm,-,N/A,,Clear,0,2013-03-12 11:55:00
7:15 AM,30.2,26.6,86,30.05,10.0,West,3.5,-,N/A,,Clear,280,2013-03-12 12:15:00
7:35 AM,30.2,26.6,86,30.05,10.0,Calm,Calm,-,N/A,,Clear,0,2013-03-12 12:35:00
7:55 AM,30.2,26.6,86,30.06,10.0,WSW,4.6,-,N/A,,Clear,250,2013-03-12 12:55:00
8:15 AM,32.0,26.6,80,30.06,10.0,West,5.8,-,N/A,,Clear,270,2013-03-12 13:15:00
8:35 AM,33.8,28.4,81,30.06,10.0,WNW,6.9,-,N/A,,Clear,290,2013-03-12 13:35:00
8:55 AM,33.8,26.6,75,30.08,10.0,West,5.8,-,N/A,,Clear,270,2013-03-12 13:55:00
9:15 AM,33.8,28.4,81,30.09,10.0,WNW,6.9,-,N/A,,Clear,290,2013-03-12 14:15:00
9:35 AM,33.8,28.4,81,30.10,10.0,West,10.4,-,N/A,,Clear,280,2013-03-12 14:35:00
9:55 AM,35.6,28.4,75,30.10,10.0,West,6.9,-,N/A,,Clear,280,2013-03-12 14:55:00
10:15 AM,35.6,28.4,75,30.09,10.0,West,6.9,-,N/A,,Clear,280,2013-03-12 15:15:00
10:35 AM,35.6,28.4,75,30.10,10.0,West,6.9,-,N/A,,Clear,280,2013-03-12 15:35:00
10:55 AM,37.4,28.4,70,30.11,10.0,West,8.1,-,N/A,,Clear,260,2013-03-12 15:55:00
11:15 AM,37.4,28.4,70,30.11,10.0,West,8.1,-,N/A,,Clear,270,2013-03-12 16:15:00
11:35 AM,39.2,28.4,65,30.11,10.0,West,6.9,-,N/A,,Clear,270,2013-03-12 16:35:00
11:55 AM,39.2,28.4,65,30.11,10.0,West,5.8,-,N/A,,Clear,270,2013-03-12 16:55:00
12:15 PM,39.2,26.6,61,30.11,10.0,WSW,8.1,16.1,N/A,,Clear,240,2013-03-12 17:15:00
12:35 PM,41.0,26.6,57,30.11,10.0,West,8.1,-,N/A,,Clear,260,2013-03-12 17:35:00
12:55 PM,41.0,24.8,53,30.11,10.0,WSW,4.6,-,N/A,,Clear,250,2013-03-12 17:55:00
1:15 PM,42.8,24.8,49,30.11,10.0,West,8.1,16.1,N/A,,Clear,270,2013-03-12 18:15:00
1:35 PM,42.8,24.8,49,30.09,10.0,West,8.1,-,N/A,,Clear,260,2013-03-12 18:35:00
1:55 PM,42.8,26.6,53,30.09,10.0,WSW,6.9,16.1,N/A,,Clear,240,2013-03-12 18:55:00
2:15 PM,44.6,26.6,49,30.09,10.0,WSW,10.4,16.1,N/A,,Clear,240,2013-03-12 19:15:00
2:35 PM,44.6,26.6,49,30.08,10.0,WSW,10.4,16.1,N/A,,Clear,240,2013-03-12 19:35:00
2:55 PM,44.6,26.6,49,30.07,10.0,SW,10.4,17.3,N/A,,Clear,230,2013-03-12 19:55:00
3:15 PM,46.4,26.6,46,30.07,10.0,WSW,9.2,-,N/A,,Clear,250,2013-03-12 20:15:00
3:35 PM,46.4,26.6,46,30.07,10.0,West,9.2,-,N/A,,Clear,260,2013-03-12 20:35:00
3:55 PM,46.4,26.6,46,30.06,10.0,WSW,13.8,19.6,N/A,,Clear,240,2013-03-12 20:55:00
4:15 PM,46.4,26.6,46,30.07,10.0,West,3.5,17.3,N/A,,Clear,280,2013-03-12 21:15:00
4:35 PM,46.4,26.6,46,30.07,10.0,West,8.1,-,N/A,,Scattered Clouds,270,2013-03-12 21:35:00
4:55 PM,46.4,26.6,46,30.07,10.0,WNW,8.1,16.1,N/A,,Scattered Clouds,290,2013-03-12 21:55:00
5:15 PM,46.4,26.6,46,30.06,10.0,West,8.1,-,N/A,,Scattered Clouds,270,2013-03-12 22:15:00
5:35 PM,46.4,26.6,46,30.06,10.0,WSW,10.4,-,N/A,,Mostly Cloudy,250,2013-03-12 22:35:00
5:55 PM,46.4,26.6,46,30.06,10.0,West,5.8,-,N/A,,Mostly Cloudy,270,2013-03-12 22:55:00
6:15 PM,46.4,28.4,50,30.06,10.0,West,5.8,-,N/A,,Overcast,260,2013-03-12 23:15:00
6:35 PM,46.4,28.4,50,30.07,10.0,WSW,4.6,-,N/A,,Overcast,250,2013-03-12 23:35:00
6:55 PM,46.4,26.6,46,30.08,10.0,WNW,9.2,19.6,N/A,,Overcast,300,2013-03-12 23:55:00
7:15 PM,44.6,28.4,53,30.09,10.0,WNW,6.9,-,N/A,,Mostly Cloudy,300,2013-03-13 00:15:00
7:35 PM,44.6,28.4,53,30.09,10.0,NW,6.9,16.1,N/A,,Scattered Clouds,310,2013-03-13 00:35:00
7:55 PM,42.8,26.6,53,30.10,10.0,WNW,5.8,-,N/A,,Clear,300,2013-03-13 00:55:00
8:15 PM,42.8,26.6,53,30.11,10.0,NW,6.9,-,N/A,,Scattered Clouds,310,2013-03-13 01:15:00
8:35 PM,42.8,28.4,57,30.12,10.0,WNW,8.1,-,N/A,,Mostly Cloudy,300,2013-03-13 01:35:00
8:55 PM,41.0,26.6,57,30.12,10.0,NW,6.9,-,N/A,,Scattered Clouds,310,2013-03-13 01:55:00
9:15 PM,41.0,28.4,61,30.13,10.0,WNW,10.4,17.3,N/A,,Clear,300,2013-03-13 02:15:00
9:35 PM,39.2,28.4,65,30.14,10.0,NW,9.2,16.1,N/A,,Scattered Clouds,310,2013-03-13 02:35:00
9:55 PM,39.2,24.8,56,30.15,10.0,WNW,5.8,18.4,N/A,,Clear,290,2013-03-13 02:55:00
10:15 PM,37.4,23.0,56,30.15,10.0,West,10.4,16.1,N/A,,Clear,280,2013-03-13 03:15:00
10:35 PM,37.4,23.0,56,30.15,10.0,West,6.9,-,N/A,,Clear,280,2013-03-13 03:35:00
10:55 PM,35.6,24.8,65,30.16,10.0,West,3.5,-,N/A,,Clear,270,2013-03-13 03:55:00
11:15 PM,35.6,24.8,65,30.16,10.0,West,8.1,-,N/A,,Clear,280,2013-03-13 04:15:00
11:35 PM,35.6,24.8,65,30.16,10.0,West,8.1,-,N/A,,Clear,280,2013-03-13 04:35:00
11:55 PM,35.6,24.8,65,30.16,10.0,West,6.9,-,N/A,,Clear,280,2013-03-13 04:55:00